sensor_id;sensor_type;location;lat;lon;timestamp;temperature;humidity
68011;DHT22;54794;48.348;7.878;2023-04-01T00:01:48;12.60;63.60
68011;DHT22;54794;48.348;7.878;2023-04-01T00:04:15;12.70;63.90
68011;DHT22;54794;48.348;7.878;2023-04-01T00:06:42;12.70;63.80
68011;DHT22;54794;48.348;7.878;2023-04-01T00:09:09;12.70;63.80
68011;DHT22;54794;48.348;7.878;2023-04-01T00:11:36;12.70;63.60
68011;DHT22;54794;48.348;7.878;2023-04-01T00:14:03;12.70;63.60
68011;DHT22;54794;48.348;7.878;2023-04-01T00:16:30;12.60;63.60
68011;DHT22;54794;48.348;7.878;2023-04-01T00:18:57;12.60;63.40
68011;DHT22;54794;48.348;7.878;2023-04-01T00:21:24;12.60;63.40
68011;DHT22;54794;48.348;7.878;2023-04-01T00:23:51;12.60;63.40
68011;DHT22;54794;48.348;7.878;2023-04-01T00:26:19;12.60;63.40
68011;DHT22;54794;48.348;7.878;2023-04-01T00:28:49;12.60;63.40
68011;DHT22;54794;48.348;7.878;2023-04-01T00:31:16;12.60;63.30
68011;DHT22;54794;48.348;7.878;2023-04-01T00:33:43;12.60;63.60
68011;DHT22;54794;48.348;7.878;2023-04-01T00:36:14;12.50;63.10
68011;DHT22;54794;48.348;7.878;2023-04-01T00:38:46;12.50;63.10
68011;DHT22;54794;48.348;7.878;2023-04-01T00:41:15;12.50;63.30
68011;DHT22;54794;48.348;7.878;2023-04-01T00:43:46;12.50;63.40
68011;DHT22;54794;48.348;7.878;2023-04-01T00:46:15;12.40;63.30
68011;DHT22;54794;48.348;7.878;2023-04-01T00:48:47;12.50;63.40
68011;DHT22;54794;48.348;7.878;2023-04-01T00:51:37;12.40;63.50
68011;DHT22;54794;48.348;7.878;2023-04-01T00:54:06;12.40;63.70
68011;DHT22;54794;48.348;7.878;2023-04-01T00:56:36;12.40;63.40
68011;DHT22;54794;48.348;7.878;2023-04-01T00:59:11;12.30;63.60
68011;DHT22;54794;48.348;7.878;2023-04-01T01:01:42;12.30;63.70
68011;DHT22;54794;48.348;7.878;2023-04-01T01:04:24;12.30;63.60
68011;DHT22;54794;48.348;7.878;2023-04-01T01:09:59;12.20;63.80
68011;DHT22;54794;48.348;7.878;2023-04-01T01:12:43;12.20;64.20
68011;DHT22;54794;48.348;7.878;2023-04-01T01:27:09;12.10;64.70
68011;DHT22;54794;48.348;7.878;2023-04-01T01:33:03;12.00;65.60
68011;DHT22;54794;48.348;7.878;2023-04-01T01:35:56;12.00;65.50
68011;DHT22;54794;48.348;7.878;2023-04-01T01:38:28;12.00;64.70
68011;DHT22;54794;48.348;7.878;2023-04-01T01:40:59;11.90;65.00
68011;DHT22;54794;48.348;7.878;2023-04-01T01:43:35;11.90;64.90
68011;DHT22;54794;48.348;7.878;2023-04-01T01:46:12;12.00;65.40
68011;DHT22;54794;48.348;7.878;2023-04-01T01:48:43;11.90;65.10
68011;DHT22;54794;48.348;7.878;2023-04-01T01:51:12;11.90;65.00
68011;DHT22;54794;48.348;7.878;2023-04-01T01:53:39;11.90;65.10
68011;DHT22;54794;48.348;7.878;2023-04-01T01:56:06;11.90;65.10
68011;DHT22;54794;48.348;7.878;2023-04-01T01:58:43;11.90;65.00
68011;DHT22;54794;48.348;7.878;2023-04-01T02:01:15;11.90;65.30
68011;DHT22;54794;48.348;7.878;2023-04-01T02:03:46;11.90;65.30
68011;DHT22;54794;48.348;7.878;2023-04-01T02:06:18;11.90;65.30
68011;DHT22;54794;48.348;7.878;2023-04-01T02:08:52;11.90;65.30
68011;DHT22;54794;48.348;7.878;2023-04-01T02:11:26;11.80;65.10
68011;DHT22;54794;48.348;7.878;2023-04-01T02:19:10;11.90;65.20
68011;DHT22;54794;48.348;7.878;2023-04-01T02:21:40;11.90;65.60
68011;DHT22;54794;48.348;7.878;2023-04-01T02:24:12;11.80;65.20
68011;DHT22;54794;48.348;7.878;2023-04-01T02:26:42;11.80;65.40
68011;DHT22;54794;48.348;7.878;2023-04-01T02:29:12;11.80;65.30
68011;DHT22;54794;48.348;7.878;2023-04-01T02:31:39;11.80;65.30
68011;DHT22;54794;48.348;7.878;2023-04-01T02:34:08;11.80;66.00
68011;DHT22;54794;48.348;7.878;2023-04-01T02:36:35;11.90;65.20
68011;DHT22;54794;48.348;7.878;2023-04-01T02:39:03;11.90;66.30
68011;DHT22;54794;48.348;7.878;2023-04-01T02:41:38;11.90;65.30
68011;DHT22;54794;48.348;7.878;2023-04-01T02:44:06;11.90;65.60
68011;DHT22;54794;48.348;7.878;2023-04-01T02:46:33;11.80;65.70
68011;DHT22;54794;48.348;7.878;2023-04-01T02:49:01;11.90;65.50
68011;DHT22;54794;48.348;7.878;2023-04-01T02:51:27;11.90;65.70
68011;DHT22;54794;48.348;7.878;2023-04-01T02:53:57;11.90;65.80
68011;DHT22;54794;48.348;7.878;2023-04-01T02:56:24;12.00;65.80
68011;DHT22;54794;48.348;7.878;2023-04-01T02:58:53;11.90;65.90
68011;DHT22;54794;48.348;7.878;2023-04-01T03:01:21;11.90;65.90
68011;DHT22;54794;48.348;7.878;2023-04-01T03:03:48;11.90;65.90
68011;DHT22;54794;48.348;7.878;2023-04-01T03:06:16;12.00;65.90
68011;DHT22;54794;48.348;7.878;2023-04-01T03:08:44;12.00;65.90
68011;DHT22;54794;48.348;7.878;2023-04-01T03:11:12;12.00;65.80
68011;DHT22;54794;48.348;7.878;2023-04-01T03:13:39;12.00;66.00
68011;DHT22;54794;48.348;7.878;2023-04-01T03:16:07;12.10;65.80
68011;DHT22;54794;48.348;7.878;2023-04-01T03:18:33;12.10;65.80
68011;DHT22;54794;48.348;7.878;2023-04-01T03:21:33;12.10;65.80
68011;DHT22;54794;48.348;7.878;2023-04-01T03:24:00;12.10;66.40
68011;DHT22;54794;48.348;7.878;2023-04-01T03:26:26;12.00;65.70
68011;DHT22;54794;48.348;7.878;2023-04-01T03:28:54;12.10;65.60
68011;DHT22;54794;48.348;7.878;2023-04-01T03:31:22;12.10;66.00
68011;DHT22;54794;48.348;7.878;2023-04-01T03:33:49;12.10;65.70
68011;DHT22;54794;48.348;7.878;2023-04-01T03:36:17;12.10;66.70
68011;DHT22;54794;48.348;7.878;2023-04-01T03:38:44;12.10;65.70
68011;DHT22;54794;48.348;7.878;2023-04-01T03:41:12;12.10;66.00
68011;DHT22;54794;48.348;7.878;2023-04-01T03:43:41;12.10;65.70
68011;DHT22;54794;48.348;7.878;2023-04-01T03:46:08;12.00;65.40
68011;DHT22;54794;48.348;7.878;2023-04-01T03:48:35;12.10;65.80
68011;DHT22;54794;48.348;7.878;2023-04-01T03:51:07;12.10;65.40
68011;DHT22;54794;48.348;7.878;2023-04-01T03:53:34;12.10;65.40
68011;DHT22;54794;48.348;7.878;2023-04-01T03:56:06;12.10;65.30
68011;DHT22;54794;48.348;7.878;2023-04-01T03:58:35;12.00;65.30
68011;DHT22;54794;48.348;7.878;2023-04-01T04:01:02;12.10;65.20
68011;DHT22;54794;48.348;7.878;2023-04-01T04:03:29;12.00;65.10
68011;DHT22;54794;48.348;7.878;2023-04-01T04:05:56;12.00;65.00
68011;DHT22;54794;48.348;7.878;2023-04-01T04:08:23;12.00;65.10
68011;DHT22;54794;48.348;7.878;2023-04-01T04:10:57;12.00;65.10
68011;DHT22;54794;48.348;7.878;2023-04-01T04:13:23;12.00;65.40
68011;DHT22;54794;48.348;7.878;2023-04-01T04:15:51;12.00;65.50
68011;DHT22;54794;48.348;7.878;2023-04-01T04:18:17;11.90;65.50
68011;DHT22;54794;48.348;7.878;2023-04-01T04:20:45;11.90;65.70
68011;DHT22;54794;48.348;7.878;2023-04-01T04:23:15;11.90;65.90
68011;DHT22;54794;48.348;7.878;2023-04-01T04:25:49;11.90;65.90
68011;DHT22;54794;48.348;7.878;2023-04-01T04:28:20;11.90;65.90
68011;DHT22;54794;48.348;7.878;2023-04-01T04:30:47;11.90;65.80
68011;DHT22;54794;48.348;7.878;2023-04-01T04:33:14;11.90;65.80
68011;DHT22;54794;48.348;7.878;2023-04-01T04:35:41;11.90;65.80
68011;DHT22;54794;48.348;7.878;2023-04-01T04:38:07;11.90;65.80
68011;DHT22;54794;48.348;7.878;2023-04-01T04:40:36;11.80;65.50
68011;DHT22;54794;48.348;7.878;2023-04-01T04:43:04;11.80;65.60
68011;DHT22;54794;48.348;7.878;2023-04-01T04:45:31;11.80;65.70
68011;DHT22;54794;48.348;7.878;2023-04-01T04:47:58;11.80;65.60
68011;DHT22;54794;48.348;7.878;2023-04-01T04:50:25;11.80;65.50
68011;DHT22;54794;48.348;7.878;2023-04-01T04:52:52;11.80;65.50
68011;DHT22;54794;48.348;7.878;2023-04-01T04:55:20;11.80;65.50
68011;DHT22;54794;48.348;7.878;2023-04-01T04:57:47;11.80;66.00
68011;DHT22;54794;48.348;7.878;2023-04-01T05:00:14;11.80;65.40
68011;DHT22;54794;48.348;7.878;2023-04-01T05:02:42;11.80;65.50
68011;DHT22;54794;48.348;7.878;2023-04-01T05:05:09;11.80;65.60
68011;DHT22;54794;48.348;7.878;2023-04-01T05:07:36;11.80;65.60
68011;DHT22;54794;48.348;7.878;2023-04-01T05:10:04;11.80;65.80
68011;DHT22;54794;48.348;7.878;2023-04-01T05:12:31;11.80;65.70
68011;DHT22;54794;48.348;7.878;2023-04-01T05:15:04;11.80;65.80
68011;DHT22;54794;48.348;7.878;2023-04-01T05:17:31;11.80;65.90
68011;DHT22;54794;48.348;7.878;2023-04-01T05:19:59;11.80;65.80
68011;DHT22;54794;48.348;7.878;2023-04-01T05:22:26;11.80;65.90
68011;DHT22;54794;48.348;7.878;2023-04-01T05:24:53;11.80;66.00
68011;DHT22;54794;48.348;7.878;2023-04-01T05:27:20;11.80;65.90
68011;DHT22;54794;48.348;7.878;2023-04-01T05:29:47;11.80;66.00
68011;DHT22;54794;48.348;7.878;2023-04-01T05:32:14;11.80;65.80
68011;DHT22;54794;48.348;7.878;2023-04-01T05:34:41;11.80;66.00
68011;DHT22;54794;48.348;7.878;2023-04-01T05:37:08;11.80;66.10
68011;DHT22;54794;48.348;7.878;2023-04-01T05:39:38;11.80;66.30
68011;DHT22;54794;48.348;7.878;2023-04-01T05:42:06;11.90;67.10
68011;DHT22;54794;48.348;7.878;2023-04-01T05:44:34;11.80;66.00
68011;DHT22;54794;48.348;7.878;2023-04-01T05:47:03;11.80;65.90
68011;DHT22;54794;48.348;7.878;2023-04-01T05:49:32;11.80;66.50
68011;DHT22;54794;48.348;7.878;2023-04-01T05:51:59;11.80;66.40
68011;DHT22;54794;48.348;7.878;2023-04-01T05:54:26;11.80;66.30
68011;DHT22;54794;48.348;7.878;2023-04-01T05:56:53;11.80;66.30
68011;DHT22;54794;48.348;7.878;2023-04-01T05:59:20;11.90;66.40
68011;DHT22;54794;48.348;7.878;2023-04-01T06:01:47;11.90;66.50
68011;DHT22;54794;48.348;7.878;2023-04-01T06:04:15;11.90;66.50
68011;DHT22;54794;48.348;7.878;2023-04-01T06:06:44;11.90;66.80
68011;DHT22;54794;48.348;7.878;2023-04-01T06:09:16;11.90;66.40
68011;DHT22;54794;48.348;7.878;2023-04-01T06:26:23;12.00;66.90
68011;DHT22;54794;48.348;7.878;2023-04-01T06:29:23;12.10;66.50
68011;DHT22;54794;48.348;7.878;2023-04-01T06:40:57;12.10;66.90
68011;DHT22;54794;48.348;7.878;2023-04-01T06:43:39;12.20;66.60
68011;DHT22;54794;48.348;7.878;2023-04-01T06:54:49;12.20;66.60
68011;DHT22;54794;48.348;7.878;2023-04-01T07:00:04;12.20;66.70
68011;DHT22;54794;48.348;7.878;2023-04-01T07:02:52;12.30;66.60
68011;DHT22;54794;48.348;7.878;2023-04-01T07:05:34;12.30;66.60
68011;DHT22;54794;48.348;7.878;2023-04-01T07:08:09;12.20;66.50
68011;DHT22;54794;48.348;7.878;2023-04-01T07:11:01;12.30;66.70
68011;DHT22;54794;48.348;7.878;2023-04-01T07:25:14;12.40;66.50
68011;DHT22;54794;48.348;7.878;2023-04-01T07:27:45;12.40;66.30
68011;DHT22;54794;48.348;7.878;2023-04-01T07:30:18;12.40;66.30
68011;DHT22;54794;48.348;7.878;2023-04-01T07:39:08;12.40;66.70
68011;DHT22;54794;48.348;7.878;2023-04-01T07:42:23;12.50;66.50
68011;DHT22;54794;48.348;7.878;2023-04-01T07:45:23;12.50;66.50
68011;DHT22;54794;48.348;7.878;2023-04-01T07:48:09;12.50;66.40
68011;DHT22;54794;48.348;7.878;2023-04-01T07:53:45;12.50;66.60
68011;DHT22;54794;48.348;7.878;2023-04-01T07:56:36;12.50;67.00
68011;DHT22;54794;48.348;7.878;2023-04-01T08:02:13;12.50;66.90
68011;DHT22;54794;48.348;7.878;2023-04-01T08:08:18;12.50;67.40
68011;DHT22;54794;48.348;7.878;2023-04-01T08:16:52;12.50;66.70
68011;DHT22;54794;48.348;7.878;2023-04-01T08:22:48;12.50;67.10
68011;DHT22;54794;48.348;7.878;2023-04-01T08:25:22;12.50;67.10
68011;DHT22;54794;48.348;7.878;2023-04-01T08:28:17;12.50;67.10
68011;DHT22;54794;48.348;7.878;2023-04-01T08:31:03;12.50;67.30
68011;DHT22;54794;48.348;7.878;2023-04-01T08:33:33;12.50;67.30
68011;DHT22;54794;48.348;7.878;2023-04-01T08:36:22;12.50;66.80
68011;DHT22;54794;48.348;7.878;2023-04-01T08:38:59;12.60;67.40
68011;DHT22;54794;48.348;7.878;2023-04-01T09:05:45;12.60;67.80
68011;DHT22;54794;48.348;7.878;2023-04-01T09:11:05;12.60;67.30
68011;DHT22;54794;48.348;7.878;2023-04-01T09:16:46;12.60;68.20
68011;DHT22;54794;48.348;7.878;2023-04-01T09:22:50;12.50;67.80
68011;DHT22;54794;48.348;7.878;2023-04-01T09:28:47;12.50;68.00
68011;DHT22;54794;48.348;7.878;2023-04-01T09:31:45;12.50;67.80
68011;DHT22;54794;48.348;7.878;2023-04-01T09:47:42;12.60;68.30
68011;DHT22;54794;48.348;7.878;2023-04-01T09:53:17;12.60;68.10
68011;DHT22;54794;48.348;7.878;2023-04-01T10:05:04;12.60;67.80
68011;DHT22;54794;48.348;7.878;2023-04-01T10:23:07;12.70;68.40
68011;DHT22;54794;48.348;7.878;2023-04-01T10:28:43;12.70;68.40
68011;DHT22;54794;48.348;7.878;2023-04-01T11:07:28;12.90;68.70
68011;DHT22;54794;48.348;7.878;2023-04-01T11:19:47;12.80;69.10
68011;DHT22;54794;48.348;7.878;2023-04-01T11:25:36;12.80;68.70
68011;DHT22;54794;48.348;7.878;2023-04-01T11:31:47;12.80;68.50
68011;DHT22;54794;48.348;7.878;2023-04-01T11:37:27;12.80;68.50
68011;DHT22;54794;48.348;7.878;2023-04-01T11:46:15;12.80;68.70
68011;DHT22;54794;48.348;7.878;2023-04-01T12:10:34;13.00;69.20
68011;DHT22;54794;48.348;7.878;2023-04-01T12:13:23;13.00;69.00
68011;DHT22;54794;48.348;7.878;2023-04-01T12:16:33;13.00;68.90
68011;DHT22;54794;48.348;7.878;2023-04-01T12:37:20;13.30;68.70
68011;DHT22;54794;48.348;7.878;2023-04-01T12:40:16;13.30;68.50
68011;DHT22;54794;48.348;7.878;2023-04-01T12:43:03;13.30;68.20
68011;DHT22;54794;48.348;7.878;2023-04-01T12:52:04;13.30;68.30
68011;DHT22;54794;48.348;7.878;2023-04-01T13:00:45;13.40;68.20
68011;DHT22;54794;48.348;7.878;2023-04-01T13:06:38;13.40;68.20
68011;DHT22;54794;48.348;7.878;2023-04-01T13:15:20;13.50;68.10
68011;DHT22;54794;48.348;7.878;2023-04-01T13:23:48;13.60;67.70
68011;DHT22;54794;48.348;7.878;2023-04-01T13:29:21;13.60;67.80
68011;DHT22;54794;48.348;7.878;2023-04-01T13:50:42;13.70;67.90
68011;DHT22;54794;48.348;7.878;2023-04-01T14:00:25;13.70;67.40
68011;DHT22;54794;48.348;7.878;2023-04-01T14:02:46;13.70;67.50
68011;DHT22;54794;48.348;7.878;2023-04-01T14:08:34;13.70;67.80
68011;DHT22;54794;48.348;7.878;2023-04-01T14:14:12;13.70;67.70
68011;DHT22;54794;48.348;7.878;2023-04-01T14:17:03;13.70;67.70
68011;DHT22;54794;48.348;7.878;2023-04-01T14:20:13;13.80;67.90
68011;DHT22;54794;48.348;7.878;2023-04-01T14:26:22;13.80;67.60
68011;DHT22;54794;48.348;7.878;2023-04-01T14:29:22;13.80;67.60
68011;DHT22;54794;48.348;7.878;2023-04-01T14:40:56;13.80;67.20
68011;DHT22;54794;48.348;7.878;2023-04-01T14:43:48;13.90;67.40
68011;DHT22;54794;48.348;7.878;2023-04-01T14:49:53;13.90;67.70
68011;DHT22;54794;48.348;7.878;2023-04-01T14:52:31;13.90;67.50
68011;DHT22;54794;48.348;7.878;2023-04-01T14:55:02;13.90;67.50
68011;DHT22;54794;48.348;7.878;2023-04-01T14:58:04;14.00;68.20
68011;DHT22;54794;48.348;7.878;2023-04-01T15:06:23;14.10;67.90
68011;DHT22;54794;48.348;7.878;2023-04-01T15:14:39;14.10;67.60
68011;DHT22;54794;48.348;7.878;2023-04-01T15:26:23;14.20;67.60
68011;DHT22;54794;48.348;7.878;2023-04-01T15:29:33;14.20;67.40
68011;DHT22;54794;48.348;7.878;2023-04-01T15:32:31;14.20;67.60
68011;DHT22;54794;48.348;7.878;2023-04-01T15:35:27;14.20;67.30
68011;DHT22;54794;48.348;7.878;2023-04-01T15:41:07;14.20;67.10
68011;DHT22;54794;48.348;7.878;2023-04-01T15:43:45;14.20;66.80
68011;DHT22;54794;48.348;7.878;2023-04-01T15:55:43;14.30;65.90
68011;DHT22;54794;48.348;7.878;2023-04-01T16:01:59;14.30;66.10
68011;DHT22;54794;48.348;7.878;2023-04-01T16:07:38;14.30;65.80
68011;DHT22;54794;48.348;7.878;2023-04-01T16:13:28;14.40;66.10
68011;DHT22;54794;48.348;7.878;2023-04-01T16:16:23;14.40;66.00
68011;DHT22;54794;48.348;7.878;2023-04-01T16:22:33;14.40;66.20
68011;DHT22;54794;48.348;7.878;2023-04-01T16:25:33;14.40;66.10
68011;DHT22;54794;48.348;7.878;2023-04-01T16:28:19;14.40;66.10
68011;DHT22;54794;48.348;7.878;2023-04-01T16:30:57;14.40;66.20
68011;DHT22;54794;48.348;7.878;2023-04-01T16:33:54;14.40;66.20
68011;DHT22;54794;48.348;7.878;2023-04-01T16:39:09;14.30;65.80
68011;DHT22;54794;48.348;7.878;2023-04-01T16:47:45;14.30;65.80
68011;DHT22;54794;48.348;7.878;2023-04-01T16:50:30;14.30;66.40
68011;DHT22;54794;48.348;7.878;2023-04-01T16:58:36;14.20;65.70
68011;DHT22;54794;48.348;7.878;2023-04-01T17:01:28;14.20;65.60
68011;DHT22;54794;48.348;7.878;2023-04-01T17:04:12;14.20;65.90
68011;DHT22;54794;48.348;7.878;2023-04-01T17:06:52;14.10;65.90
68011;DHT22;54794;48.348;7.878;2023-04-01T17:24:00;14.00;65.90
68011;DHT22;54794;48.348;7.878;2023-04-01T17:27:28;13.90;65.90
68011;DHT22;54794;48.348;7.878;2023-04-01T17:33:31;13.90;65.80
68011;DHT22;54794;48.348;7.878;2023-04-01T17:36:16;13.90;65.80
68011;DHT22;54794;48.348;7.878;2023-04-01T17:42:13;13.80;65.60
68011;DHT22;54794;48.348;7.878;2023-04-01T17:50:34;13.80;65.70
68011;DHT22;54794;48.348;7.878;2023-04-01T17:59:16;13.70;65.80
68011;DHT22;54794;48.348;7.878;2023-04-01T18:02:03;13.70;65.80
68011;DHT22;54794;48.348;7.878;2023-04-01T18:04:57;13.70;65.80
68011;DHT22;54794;48.348;7.878;2023-04-01T18:10:53;13.60;65.80
68011;DHT22;54794;48.348;7.878;2023-04-01T18:25:33;13.50;66.10
68011;DHT22;54794;48.348;7.878;2023-04-01T18:34:07;13.50;66.20
68011;DHT22;54794;48.348;7.878;2023-04-01T18:36:47;13.50;66.20
68011;DHT22;54794;48.348;7.878;2023-04-01T18:39:37;13.50;66.30
68011;DHT22;54794;48.348;7.878;2023-04-01T18:45:10;13.50;66.40
68011;DHT22;54794;48.348;7.878;2023-04-01T18:51:20;13.50;66.30
68011;DHT22;54794;48.348;7.878;2023-04-01T18:57:21;13.50;66.30
68011;DHT22;54794;48.348;7.878;2023-04-01T19:00:04;13.50;66.20
68011;DHT22;54794;48.348;7.878;2023-04-01T19:03:16;13.50;66.30
68011;DHT22;54794;48.348;7.878;2023-04-01T19:05:51;13.40;66.20
68011;DHT22;54794;48.348;7.878;2023-04-01T19:14:25;13.40;66.00
68011;DHT22;54794;48.348;7.878;2023-04-01T19:20:16;13.30;66.00
68011;DHT22;54794;48.348;7.878;2023-04-01T19:26:04;13.20;65.90
68011;DHT22;54794;48.348;7.878;2023-04-01T19:34:43;13.20;65.80
68011;DHT22;54794;48.348;7.878;2023-04-01T19:37:25;13.20;66.30
68011;DHT22;54794;48.348;7.878;2023-04-01T19:52:29;13.10;65.60
68011;DHT22;54794;48.348;7.878;2023-04-01T19:58:05;13.10;65.70
68011;DHT22;54794;48.348;7.878;2023-04-01T20:00:52;13.00;65.70
68011;DHT22;54794;48.348;7.878;2023-04-01T20:10:16;13.00;65.70
68011;DHT22;54794;48.348;7.878;2023-04-01T20:16:04;13.00;65.80
68011;DHT22;54794;48.348;7.878;2023-04-01T20:24:36;13.00;65.80
68011;DHT22;54794;48.348;7.878;2023-04-01T20:39:13;12.90;66.10
68011;DHT22;54794;48.348;7.878;2023-04-01T20:45:17;12.90;66.00
68011;DHT22;54794;48.348;7.878;2023-04-01T20:48:02;12.90;66.10
68011;DHT22;54794;48.348;7.878;2023-04-01T20:51:05;12.80;66.30
68011;DHT22;54794;48.348;7.878;2023-04-01T20:53:50;12.80;66.30
68011;DHT22;54794;48.348;7.878;2023-04-01T20:56:57;12.80;66.40
68011;DHT22;54794;48.348;7.878;2023-04-01T21:02:36;12.80;66.70
68011;DHT22;54794;48.348;7.878;2023-04-01T21:08:53;12.70;66.90
68011;DHT22;54794;48.348;7.878;2023-04-01T21:11:40;12.70;66.90
68011;DHT22;54794;48.348;7.878;2023-04-01T21:14:38;12.70;66.70
68011;DHT22;54794;48.348;7.878;2023-04-01T21:54:22;12.40;66.70
68011;DHT22;54794;48.348;7.878;2023-04-01T21:57:11;12.40;67.00
68011;DHT22;54794;48.348;7.878;2023-04-01T22:03:03;12.30;67.00
68011;DHT22;54794;48.348;7.878;2023-04-01T22:11:50;12.30;67.00
68011;DHT22;54794;48.348;7.878;2023-04-01T22:22:55;12.20;67.10
68011;DHT22;54794;48.348;7.878;2023-04-01T22:25:49;12.30;67.30
68011;DHT22;54794;48.348;7.878;2023-04-01T22:29:15;12.20;67.20
68011;DHT22;54794;48.348;7.878;2023-04-01T22:31:57;12.30;67.10
68011;DHT22;54794;48.348;7.878;2023-04-01T22:34:40;12.20;67.00
68011;DHT22;54794;48.348;7.878;2023-04-01T22:37:51;12.20;67.20
68011;DHT22;54794;48.348;7.878;2023-04-01T22:41:23;12.30;67.30
68011;DHT22;54794;48.348;7.878;2023-04-01T22:43:50;12.20;67.80
68011;DHT22;54794;48.348;7.878;2023-04-01T22:55:00;12.20;67.20
68011;DHT22;54794;48.348;7.878;2023-04-01T22:57:44;12.20;67.30
68011;DHT22;54794;48.348;7.878;2023-04-01T23:03:29;12.20;67.30
68011;DHT22;54794;48.348;7.878;2023-04-01T23:06:03;12.20;67.40
68011;DHT22;54794;48.348;7.878;2023-04-01T23:09:05;12.20;67.30
68011;DHT22;54794;48.348;7.878;2023-04-01T23:12:10;12.20;67.50
68011;DHT22;54794;48.348;7.878;2023-04-01T23:14:49;12.10;67.40
68011;DHT22;54794;48.348;7.878;2023-04-01T23:17:37;12.10;67.40
68011;DHT22;54794;48.348;7.878;2023-04-01T23:22:56;12.10;67.40
68011;DHT22;54794;48.348;7.878;2023-04-01T23:25:46;12.10;67.30
68011;DHT22;54794;48.348;7.878;2023-04-01T23:31:46;12.10;67.40
68011;DHT22;54794;48.348;7.878;2023-04-01T23:37:10;12.10;67.30
68011;DHT22;54794;48.348;7.878;2023-04-01T23:39:41;12.00;67.50
68011;DHT22;54794;48.348;7.878;2023-04-01T23:42:27;12.00;67.30
68011;DHT22;54794;48.348;7.878;2023-04-01T23:44:58;12.00;67.40
68011;DHT22;54794;48.348;7.878;2023-04-01T23:47:32;12.00;67.50
68011;DHT22;54794;48.348;7.878;2023-04-01T23:50:04;12.00;67.50
68011;DHT22;54794;48.348;7.878;2023-04-01T23:52:48;12.00;67.50
68011;DHT22;54794;48.348;7.878;2023-04-01T23:55:30;12.00;67.70
